Time;durP1;ratioP1;P1;durP2;ratioP2;P2;SDS_P1;SDS_P2;PMS_P1;PMS_P2;Temp;Humidity;BMP_temperature;BMP_pressure;BME280_temperature;BME280_humidity;BME280_pressure;Samples;Min_cycle;Max_cycle;Signal;HPM_P1;HPM_P2
2022/03/23 00:01:07;;;;;;;48.95;26.88;;;7.30;99.90;;;;;;4973882;28;20118;-72
2022/03/23 00:03:34;;;;;;;45.22;25.73;;;7.20;99.90;;;;;;4973664;28;20038;-73
2022/03/23 00:06:01;;;;;;;45.92;27.17;;;7.20;99.90;;;;;;4956377;28;20509;-73
2022/03/23 00:08:27;;;;;;;45.70;26.80;;;7.10;99.90;;;;;;4939792;28;20498;-72
2022/03/23 00:10:52;;;;;;;51.97;28.25;;;7.20;99.90;;;;;;4956368;28;20046;-74
2022/03/23 00:13:18;;;;;;;46.47;26.77;;;7.10;99.90;;;;;;4956671;28;20043;-74
2022/03/23 00:15:45;;;;;;;45.33;26.13;;;7.00;99.90;;;;;;4956345;28;20046;-71
2022/03/23 00:18:11;;;;;;;47.45;27.45;;;7.00;99.90;;;;;;4973693;28;20042;-72
2022/03/23 00:20:38;;;;;;;48.30;27.77;;;7.20;99.90;;;;;;4956506;28;20439;-75
2022/03/23 00:23:05;;;;;;;48.55;27.98;;;7.00;99.90;;;;;;4956017;28;20139;-72
2022/03/23 00:25:31;;;;;;;48.20;28.10;;;7.00;99.90;;;;;;4973301;28;20472;-72
2022/03/23 00:27:57;;;;;;;44.70;27.77;;;7.00;99.90;;;;;;4956100;28;20403;-72
2022/03/23 00:30:23;;;;;;;47.85;27.25;;;6.90;99.90;;;;;;4973284;28;20050;-72
2022/03/23 00:32:49;;;;;;;48.50;27.35;;;6.90;99.90;;;;;;4973352;28;20503;-74
2022/03/23 00:35:15;;;;;;;51.58;28.77;;;6.90;99.90;;;;;;4973696;28;20046;-74
2022/03/23 00:37:43;;;;;;;51.05;27.60;;;6.90;99.90;;;;;;4973317;28;20201;-74
2022/03/23 00:40:09;;;;;;;42.70;26.13;;;6.80;99.90;;;;;;4974626;28;20043;-73
2022/03/23 00:42:35;;;;;;;52.63;28.05;;;6.80;99.90;;;;;;4959674;28;20050;-72
2022/03/23 00:45:03;;;;;;;46.95;26.17;;;6.70;99.90;;;;;;4984334;28;20417;-72
2022/03/23 00:47:29;;;;;;;46.58;26.67;;;7.20;99.90;;;;;;4996486;28;20093;-72
2022/03/23 00:49:58;;;;;;;43.75;25.83;;;7.10;99.90;;;;;;4996510;28;20050;-72
2022/03/23 00:52:23;;;;;;;46.80;27.30;;;6.70;99.90;;;;;;4996411;28;20455;-73
2022/03/23 00:54:49;;;;;;;49.78;26.85;;;6.60;99.90;;;;;;4995786;28;20050;-72
2022/03/23 00:57:15;;;;;;;48.47;26.60;;;6.60;99.90;;;;;;4978529;28;20046;-72
2022/03/23 00:59:40;;;;;;;48.05;26.55;;;7.20;99.90;;;;;;4996078;28;20049;-75
2022/03/23 01:02:10;;;;;;;49.00;26.58;;;6.60;99.90;;;;;;4979050;28;20478;-72
2022/03/23 01:04:36;;;;;;;47.28;26.98;;;6.50;99.90;;;;;;4978781;28;20121;-72
2022/03/23 01:07:03;;;;;;;46.65;25.63;;;6.40;99.90;;;;;;4996066;28;20053;-71
2022/03/23 01:09:29;;;;;;;45.78;26.77;;;6.40;99.90;;;;;;4995546;28;20047;-74
2022/03/23 01:11:55;;;;;;;43.55;25.58;;;6.40;99.90;;;;;;4996000;28;20375;-74
2022/03/23 01:14:23;;;;;;;44.50;25.98;;;6.40;99.90;;;;;;4996093;28;20093;-74
2022/03/23 01:16:50;;;;;;;45.13;27.20;;;6.30;99.90;;;;;;4996201;28;20429;-72
2022/03/23 01:19:17;;;;;;;44.70;26.38;;;6.30;99.90;;;;;;4996125;28;20050;-72
2022/03/23 01:21:44;;;;;;;44.25;25.67;;;6.30;99.90;;;;;;4995927;28;20057;-72
2022/03/23 01:24:10;;;;;;;47.83;26.35;;;6.20;99.90;;;;;;4995814;28;20050;-78
2022/03/23 01:26:36;;;;;;;46.60;26.20;;;6.20;99.90;;;;;;4995041;28;20050;-77
2022/03/23 01:29:03;;;;;;;46.20;26.83;;;6.20;99.90;;;;;;4995776;28;20086;-78
2022/03/23 01:31:30;;;;;;;45.40;26.70;;;6.10;99.90;;;;;;4978526;28;20049;-78
2022/03/23 01:33:59;;;;;;;47.08;28.17;;;6.10;99.90;;;;;;4995783;28;20057;-78
2022/03/23 01:36:31;;;;;;;49.15;26.02;;;6.00;99.90;;;;;;4978175;28;20085;-79
2022/03/23 01:38:58;;;;;;;45.78;27.42;;;6.00;99.90;;;;;;4995616;28;20509;-78
2022/03/23 01:41:25;;;;;;;43.70;26.77;;;5.90;99.90;;;;;;4995247;28;20042;-73
2022/03/23 01:43:51;;;;;;;45.60;26.25;;;5.90;99.90;;;;;;4995441;28;20074;-73
2022/03/23 01:46:18;;;;;;;44.72;25.80;;;5.90;99.90;;;;;;4960342;28;20058;-71
2022/03/23 01:48:45;;;;;;;42.15;25.60;;;5.90;99.90;;;;;;4976069;28;20042;-72
2022/03/23 01:51:12;;;;;;;49.53;28.42;;;5.80;99.90;;;;;;4975710;28;20043;-73
2022/03/23 01:53:38;;;;;;;44.90;27.40;;;5.80;99.90;;;;;;4975673;28;20085;-72
2022/03/23 01:56:04;;;;;;;51.85;28.05;;;5.80;99.90;;;;;;4958649;28;20395;-72
2022/03/23 01:58:30;;;;;;;53.13;29.65;;;5.70;99.90;;;;;;4975427;28;20043;-71
2022/03/23 02:00:56;;;;;;;51.65;27.35;;;5.70;99.90;;;;;;4958762;28;20097;-73
2022/03/23 02:03:22;;;;;;;44.75;26.88;;;5.70;99.90;;;;;;4975777;28;20081;-73
2022/03/23 02:05:48;;;;;;;46.10;26.77;;;5.80;99.90;;;;;;4975723;28;20398;-73
2022/03/23 02:08:14;;;;;;;45.47;26.77;;;5.60;99.90;;;;;;4975497;28;20490;-72
2022/03/23 02:10:41;;;;;;;45.45;27.45;;;5.60;99.90;;;;;;4975603;28;20051;-73
2022/03/23 02:13:09;;;;;;;46.33;26.60;;;5.60;99.90;;;;;;4975412;28;20050;-72
2022/03/23 02:15:35;;;;;;;48.85;27.75;;;5.60;99.90;;;;;;4975451;28;20170;-72
2022/03/23 02:18:01;;;;;;;44.95;26.88;;;5.50;99.90;;;;;;4975532;28;20116;-73
2022/03/23 02:20:27;;;;;;;49.50;27.98;;;5.50;99.90;;;;;;4975400;28;20126;-72
2022/03/23 02:22:53;;;;;;;49.00;27.42;;;5.50;99.90;;;;;;4975372;28;20392;-72
2022/03/23 02:25:22;;;;;;;48.90;28.58;;;5.40;99.90;;;;;;4975366;28;20050;-72
2022/03/23 02:27:48;;;;;;;49.83;27.90;;;5.40;99.90;;;;;;4975437;28;20095;-74
2022/03/23 02:30:14;;;;;;;48.17;27.27;;;6.20;99.90;;;;;;4957182;28;20043;-71
2022/03/23 02:32:39;;;;;;;48.03;27.65;;;5.30;99.90;;;;;;4957790;28;20392;-72
2022/03/23 02:35:07;;;;;;;49.70;28.45;;;5.30;99.90;;;;;;4975117;28;20380;-71
2022/03/23 02:37:35;;;;;;;50.85;28.40;;;5.30;99.90;;;;;;4975040;28;20061;-72
2022/03/23 02:40:01;;;;;;;49.60;27.35;;;5.30;99.90;;;;;;4974868;28;20114;-71
2022/03/23 02:42:26;;;;;;;44.78;25.50;;;5.40;99.90;;;;;;4975180;28;20038;-71
2022/03/23 02:44:52;;;;;;;45.95;26.25;;;5.20;99.90;;;;;;4980581;28;20053;-72
2022/03/23 02:47:18;;;;;;;45.83;25.63;;;5.20;99.90;;;;;;4994420;28;20038;-72
2022/03/23 02:49:44;;;;;;;48.75;27.98;;;5.20;99.90;;;;;;4976943;28;20056;-72
2022/03/23 02:52:10;;;;;;;52.97;27.83;;;5.20;99.90;;;;;;4994123;28;20042;-72
2022/03/23 03:03:14;;;;;;;47.58;27.00;;;5.10;99.90;;;;;;4993556;28;20376;-72
2022/03/23 03:05:40;;;;;;;47.75;27.30;;;5.10;99.90;;;;;;4994045;28;20042;-70
2022/03/23 03:10:50;;;;;;;51.80;29.00;;;5.10;99.90;;;;;;4993937;28;20490;-73
2022/03/23 03:13:16;;;;;;;50.22;29.35;;;5.20;99.90;;;;;;4993946;28;20057;-74
2022/03/23 03:15:41;;;;;;;55.40;30.73;;;5.00;99.90;;;;;;4993621;28;20435;-72
2022/03/23 03:18:07;;;;;;;52.30;31.15;;;5.00;99.90;;;;;;4975824;28;20061;-73
2022/03/23 03:20:32;;;;;;;56.38;31.98;;;5.00;99.90;;;;;;4993638;28;20394;-72
2022/03/23 03:22:58;;;;;;;56.00;31.70;;;5.00;99.90;;;;;;4976178;28;20050;-72
2022/03/23 03:25:24;;;;;;;56.33;30.80;;;4.90;99.90;;;;;;4993940;28;20387;-73
2022/03/23 03:27:50;;;;;;;53.08;29.88;;;4.90;99.90;;;;;;4993659;28;20509;-72
2022/03/23 03:30:17;;;;;;;54.30;31.15;;;4.90;99.90;;;;;;4993358;28;20085;-71
2022/03/23 03:32:44;;;;;;;53.60;29.88;;;4.90;99.90;;;;;;4975593;28;20054;-73
2022/03/23 03:35:10;;;;;;;50.15;29.63;;;4.80;99.90;;;;;;4959820;28;20057;-73
2022/03/23 03:37:37;;;;;;;52.70;29.20;;;4.80;99.90;;;;;;4993448;28;20066;-73
2022/03/23 03:40:05;;;;;;;45.65;27.58;;;4.80;99.90;;;;;;4993331;28;20121;-73
2022/03/23 03:42:31;;;;;;;50.17;28.40;;;4.80;99.90;;;;;;4993267;28;20042;-71
2022/03/23 03:44:57;;;;;;;51.58;29.88;;;4.70;99.90;;;;;;4975304;28;20058;-72
2022/03/23 03:47:24;;;;;;;48.33;27.73;;;4.70;99.90;;;;;;4992788;28;20494;-73
2022/03/23 03:49:50;;;;;;;51.67;28.13;;;4.70;99.90;;;;;;4993269;28;20046;-72
2022/03/23 03:52:16;;;;;;;49.80;27.00;;;4.70;99.90;;;;;;4993310;28;20042;-71
2022/03/23 03:54:42;;;;;;;48.65;27.95;;;4.70;99.90;;;;;;4993151;28;20054;-72
2022/03/23 03:57:07;;;;;;;49.35;27.60;;;4.60;99.90;;;;;;4976270;28;20066;-72
2022/03/23 03:59:34;;;;;;;51.13;28.45;;;4.60;99.90;;;;;;4993160;28;20073;-72
2022/03/23 04:02:01;;;;;;;52.97;28.35;;;4.60;99.90;;;;;;4993003;28;20042;-74
2022/03/23 04:04:27;;;;;;;47.60;26.55;;;4.50;99.90;;;;;;4992595;28;20117;-71
2022/03/23 04:06:52;;;;;;;53.67;27.35;;;4.50;99.90;;;;;;4975940;28;20150;-74
2022/03/23 04:09:18;;;;;;;49.42;27.80;;;4.50;99.90;;;;;;4993243;28;20141;-73
2022/03/23 04:11:44;;;;;;;48.83;27.15;;;4.40;99.90;;;;;;4975812;28;20043;-72
2022/03/23 04:14:10;;;;;;;50.72;27.50;;;4.60;99.90;;;;;;4993213;28;20561;-71
2022/03/23 04:16:36;;;;;;;49.25;26.17;;;4.40;99.90;;;;;;4979181;28;20093;-72
2022/03/23 04:19:05;;;;;;;47.70;26.45;;;4.40;99.90;;;;;;4997039;28;20410;-70
2022/03/23 04:21:31;;;;;;;50.40;28.05;;;4.30;99.90;;;;;;4979239;28;20050;-72
2022/03/23 04:23:57;;;;;;;44.80;26.60;;;4.30;99.90;;;;;;4997090;28;20089;-73
2022/03/23 04:26:23;;;;;;;48.53;27.67;;;4.30;99.90;;;;;;4996983;28;20438;-73
2022/03/23 04:28:48;;;;;;;43.60;26.33;;;4.30;99.90;;;;;;4996785;28;20131;-72
2022/03/23 04:31:15;;;;;;;49.67;26.30;;;4.30;99.90;;;;;;4996580;28;20050;-72
2022/03/23 04:33:40;;;;;;;48.47;26.83;;;4.30;99.90;;;;;;4979508;28;20066;-71
2022/03/23 04:36:06;;;;;;;50.40;27.83;;;4.30;99.90;;;;;;4978901;28;20541;-73
2022/03/23 04:38:32;;;;;;;48.83;27.95;;;4.20;99.90;;;;;;4979332;28;20054;-70
2022/03/23 04:40:57;;;;;;;51.53;27.60;;;4.20;99.90;;;;;;4979398;28;20050;-71
2022/03/23 04:43:23;;;;;;;53.78;28.75;;;4.20;99.90;;;;;;4996476;28;20406;-73
2022/03/23 04:45:49;;;;;;;46.60;24.77;;;4.10;99.90;;;;;;4996185;28;20046;-72
2022/03/23 04:48:15;;;;;;;50.25;25.73;;;4.10;99.90;;;;;;4996347;28;20051;-72
2022/03/23 04:50:40;;;;;;;51.83;25.45;;;4.10;99.90;;;;;;4996474;28;20046;-72
2022/03/23 04:53:06;;;;;;;50.05;26.48;;;4.90;99.90;;;;;;4996054;28;20042;-73
2022/03/23 04:55:32;;;;;;;50.90;26.10;;;4.10;99.90;;;;;;4996434;28;20081;-72
2022/03/23 04:58:00;;;;;;;49.03;26.83;;;4.10;99.90;;;;;;4996378;28;20053;-71
2022/03/23 05:00:26;;;;;;;51.75;27.52;;;4.10;99.90;;;;;;4996215;28;20050;-73
2022/03/23 05:02:52;;;;;;;52.80;28.42;;;4.10;99.90;;;;;;4996259;28;20450;-73
2022/03/23 05:05:18;;;;;;;52.90;26.67;;;4.00;99.90;;;;;;4996247;28;20046;-71
2022/03/23 05:07:45;;;;;;;52.92;28.15;;;4.10;99.90;;;;;;4995900;28;20050;-71
2022/03/23 05:10:12;;;;;;;48.42;27.20;;;4.00;99.90;;;;;;4978676;28;20050;-72
2022/03/23 05:12:39;;;;;;;54.03;26.92;;;4.00;99.90;;;;;;4996179;28;20042;-72
2022/03/23 05:15:06;;;;;;;52.92;28.65;;;4.00;99.90;;;;;;4978926;28;20045;-74
2022/03/23 05:17:32;;;;;;;50.80;27.08;;;4.00;99.90;;;;;;4995982;28;20052;-72
2022/03/23 05:19:59;;;;;;;36.15;13.88;;;4.00;99.90;;;;;;4996079;28;20421;-71
2022/03/23 05:22:24;;;;;;;32.63;14.05;;;4.00;99.90;;;;;;4995835;28;20050;-72
2022/03/23 05:24:50;;;;;;;27.48;12.30;;;4.00;99.90;;;;;;4977933;28;20554;-77
2022/03/23 05:27:16;;;;;;;33.83;12.48;;;4.00;99.90;;;;;;4995468;28;20121;-77
2022/03/23 05:29:43;;;;;;;31.23;13.43;;;3.90;99.90;;;;;;4978359;28;20093;-75
2022/03/23 05:32:16;;;;;;;37.53;13.20;;;3.90;99.90;;;;;;4995561;28;20121;-77
2022/03/23 05:34:43;;;;;;;37.30;14.82;;;3.90;99.90;;;;;;4995881;28;20053;-74
2022/03/23 05:37:08;;;;;;;35.25;14.00;;;4.00;99.90;;;;;;4995684;28;20390;-77
2022/03/23 05:39:34;;;;;;;27.95;12.35;;;3.90;99.90;;;;;;4994962;28;20042;-78
2022/03/23 05:42:00;;;;;;;30.05;12.32;;;3.90;99.90;;;;;;4995573;28;20077;-75
2022/03/23 05:44:25;;;;;;;34.75;13.05;;;3.90;99.90;;;;;;4977856;28;20101;-78
2022/03/23 05:46:51;;;;;;;32.22;12.55;;;3.90;99.90;;;;;;4977713;28;20058;-77
2022/03/23 05:49:16;;;;;;;28.10;12.80;;;3.90;99.90;;;;;;4978074;28;20062;-77
2022/03/23 05:51:42;;;;;;;31.98;13.70;;;3.90;99.90;;;;;;4977875;28;20055;-74
2022/03/23 05:54:08;;;;;;;33.33;14.23;;;3.90;99.90;;;;;;4961666;28;20054;-77
2022/03/23 05:56:33;;;;;;;29.50;12.98;;;4.00;99.90;;;;;;4977496;28;20429;-74
2022/03/23 05:58:59;;;;;;;36.15;14.00;;;4.00;99.90;;;;;;4995289;28;20042;-76
2022/03/23 06:01:24;;;;;;;36.78;15.55;;;4.00;99.90;;;;;;4995244;28;20042;-75
2022/03/23 06:03:50;;;;;;;37.80;14.43;;;4.10;99.90;;;;;;4995605;28;20054;-77
2022/03/23 06:06:16;;;;;;;34.47;14.20;;;4.20;99.90;;;;;;4995524;28;20046;-71
2022/03/23 06:08:42;;;;;;;30.33;13.70;;;4.20;99.90;;;;;;4977555;28;20046;-72
2022/03/23 06:11:08;;;;;;;29.92;12.65;;;4.20;99.90;;;;;;4977411;28;20060;-71
2022/03/23 06:13:34;;;;;;;30.42;13.15;;;4.30;99.90;;;;;;4995161;28;20085;-72
2022/03/23 06:15:59;;;;;;;30.02;13.70;;;4.40;99.90;;;;;;4994998;28;20146;-72
2022/03/23 06:18:25;;;;;;;27.55;12.38;;;4.50;99.90;;;;;;4994914;28;20046;-72
2022/03/23 06:20:51;;;;;;;27.77;13.35;;;4.60;99.90;;;;;;4977592;28;20046;-73
2022/03/23 06:23:17;;;;;;;32.85;13.27;;;4.60;99.90;;;;;;4994983;28;20085;-75
2022/03/23 06:25:42;;;;;;;26.73;12.48;;;4.80;99.90;;;;;;4994687;28;20081;-79
2022/03/23 06:28:08;;;;;;;28.52;12.73;;;4.90;99.90;;;;;;4977147;28;20483;-78
2022/03/23 06:30:34;;;;;;;30.05;12.90;;;4.90;99.90;;;;;;4977371;28;20049;-78
2022/03/23 06:33:01;;;;;;;31.85;14.07;;;5.10;99.90;;;;;;4994571;28;20406;-77
2022/03/23 06:35:27;;;;;;;29.90;11.38;;;5.20;99.90;;;;;;4977408;28;20494;-72
2022/03/23 06:37:53;;;;;;;30.90;11.48;;;5.20;99.90;;;;;;4976602;28;20117;-73
2022/03/23 06:40:20;;;;;;;29.40;10.73;;;5.40;99.90;;;;;;4977375;28;20084;-76
2022/03/23 06:42:46;;;;;;;26.75;11.70;;;5.50;99.90;;;;;;4994221;28;20467;-70
2022/03/23 06:45:12;;;;;;;22.85;10.32;;;5.60;99.90;;;;;;4994549;28;20082;-72
2022/03/23 06:47:38;;;;;;;31.75;12.02;;;5.80;99.90;;;;;;4960223;28;20051;-75
2022/03/23 06:50:04;;;;;;;32.65;11.65;;;5.80;99.90;;;;;;4975146;28;20085;-69
2022/03/23 06:52:30;;;;;;;25.27;10.63;;;5.90;99.90;;;;;;4957455;28;20050;-71
2022/03/23 06:54:55;;;;;;;31.08;12.32;;;6.00;99.90;;;;;;4957264;28;20050;-71
2022/03/23 06:57:21;;;;;;;26.45;10.38;;;6.10;99.90;;;;;;4974689;28;20043;-70
2022/03/23 06:59:47;;;;;;;25.52;10.55;;;6.20;99.90;;;;;;4974931;28;20042;-73
2022/03/23 07:02:16;;;;;;;27.58;12.10;;;6.30;99.90;;;;;;4974878;28;20050;-71
2022/03/23 07:04:42;;;;;;;23.33;10.30;;;6.40;99.90;;;;;;4974493;28;20451;-71
2022/03/23 07:07:08;;;;;;;29.05;10.95;;;6.50;99.90;;;;;;4974575;28;20047;-69
2022/03/23 07:09:41;;;;;;;30.02;13.50;;;6.50;99.90;;;;;;5017914;23;20155;-74
2022/03/23 07:12:09;;;;;;;28.55;11.50;;;7.10;99.90;;;;;;5051574;28;20512;-78
2022/03/23 07:14:40;;;;;;;31.52;12.45;;;6.70;99.90;;;;;;4983145;23;20446;-74
2022/03/23 07:17:07;;;;;;;26.52;12.52;;;7.10;99.90;;;;;;4992529;28;20042;-67
2022/03/23 07:19:32;;;;;;;26.50;12.10;;;6.80;99.90;;;;;;4992810;28;20043;-69
2022/03/23 07:21:58;;;;;;;32.85;13.30;;;6.90;99.90;;;;;;4993422;28;20556;-71
2022/03/23 07:24:24;;;;;;;25.80;12.43;;;7.60;99.90;;;;;;4974984;28;20509;-71
2022/03/23 07:26:50;;;;;;;28.02;12.20;;;7.00;99.90;;;;;;4993129;28;20404;-70
2022/03/23 07:29:16;;;;;;;26.33;11.63;;;7.10;99.90;;;;;;4992349;28;20042;-72
2022/03/23 07:31:42;;;;;;;26.35;13.07;;;7.20;99.90;;;;;;4975402;28;20042;-71
2022/03/23 07:34:08;;;;;;;29.20;12.65;;;7.30;99.90;;;;;;4993160;28;20557;-68
2022/03/23 07:36:33;;;;;;;27.13;12.05;;;7.30;99.90;;;;;;4992309;28;20042;-78
2022/03/23 07:38:59;;;;;;;28.45;12.85;;;7.40;99.90;;;;;;4994354;28;20046;-73
2022/03/23 07:41:26;;;;;;;32.00;12.15;;;7.50;99.90;;;;;;4993051;28;20046;-68
2022/03/23 07:43:52;;;;;;;26.13;11.18;;;7.60;99.90;;;;;;4993129;28;20050;-75
2022/03/23 07:46:18;;;;;;;29.90;12.55;;;7.70;99.90;;;;;;4992097;28;20121;-76
2022/03/23 07:48:43;;;;;;;34.75;12.77;;;7.80;99.90;;;;;;4992150;28;20504;-81
2022/03/23 07:51:09;;;;;;;25.80;11.07;;;8.00;99.90;;;;;;5000844;28;20121;-81
2022/03/23 07:53:35;;;;;;;27.55;10.50;;;8.10;99.90;;;;;;5012869;28;20508;-78
2022/03/23 07:56:01;;;;;;;30.27;9.82;;;8.30;99.90;;;;;;5012134;28;20034;-72
2022/03/23 07:58:28;;;;;;;25.85;11.35;;;8.40;99.90;;;;;;5008810;28;20136;-69
2022/03/23 08:00:54;;;;;;;24.98;10.80;;;8.50;99.90;;;;;;4999612;28;20049;-74
2022/03/23 08:03:20;;;;;;;26.48;11.00;;;8.60;99.90;;;;;;4975907;28;20066;-75
2022/03/23 08:05:47;;;;;;;22.33;11.30;;;8.70;99.90;;;;;;5009798;28;20046;-72
2022/03/23 08:08:13;;;;;;;26.27;11.52;;;9.10;99.90;;;;;;4971656;28;20046;-74
2022/03/23 08:10:43;;;;;;;25.77;10.68;;;9.00;99.90;;;;;;4991254;28;20046;-71
2022/03/23 08:13:09;;;;;;;27.35;12.52;;;9.10;99.90;;;;;;4990760;28;20054;-69
2022/03/23 08:15:36;;;;;;;25.58;10.07;;;9.30;99.90;;;;;;4973473;28;20145;-70
2022/03/23 08:18:02;;;;;;;24.88;11.02;;;9.50;99.90;;;;;;4969794;28;20120;-70
2022/03/23 08:20:35;;;;;;;26.30;11.10;;;9.60;99.90;;;;;;4976849;28;20502;-72
2022/03/23 08:23:09;;;;;;;27.25;11.75;;;9.70;99.90;;;;;;4977910;28;20148;-73
2022/03/23 08:25:41;;;;;;;25.92;10.90;;;9.80;99.90;;;;;;4972591;28;20045;-71
2022/03/23 08:28:09;;;;;;;25.87;12.43;;;9.90;99.90;;;;;;5005138;28;20595;-72
2022/03/23 08:30:35;;;;;;;28.83;11.15;;;10.00;99.90;;;;;;5000191;28;20100;-71
2022/03/23 08:33:02;;;;;;;24.10;10.85;;;10.20;99.90;;;;;;4972761;28;20093;-73
2022/03/23 08:35:29;;;;;;;22.73;11.60;;;10.40;99.90;;;;;;5008123;28;20053;-73
2022/03/23 08:37:55;;;;;;;24.58;10.63;;;10.40;99.90;;;;;;4970291;28;20070;-72
2022/03/23 08:40:21;;;;;;;22.33;10.13;;;10.50;99.90;;;;;;4972653;28;20046;-73
2022/03/23 08:42:47;;;;;;;26.30;11.40;;;10.70;99.90;;;;;;4996234;28;20077;-72
2022/03/23 08:45:13;;;;;;;24.88;11.27;;;10.90;99.90;;;;;;4976842;28;20050;-71
2022/03/23 08:47:39;;;;;;;23.83;11.05;;;11.00;99.90;;;;;;5007555;28;20502;-70
2022/03/23 08:50:09;;;;;;;21.75;10.07;;;11.20;99.90;;;;;;4999725;28;20049;-71
2022/03/23 08:52:35;;;;;;;23.30;10.90;;;11.30;99.90;;;;;;4995804;28;20039;-72
2022/03/23 08:55:07;;;;;;;24.23;11.27;;;11.50;99.90;;;;;;4992298;28;20043;-70
2022/03/23 08:57:33;;;;;;;22.95;10.18;;;11.60;99.90;;;;;;4973436;28;20133;-71
2022/03/23 08:59:59;;;;;;;25.23;9.82;;;11.70;99.90;;;;;;4957247;28;20088;-71
2022/03/23 09:02:25;;;;;;;21.20;10.13;;;11.90;99.90;;;;;;4995439;28;21303;-71
2022/03/23 09:04:51;;;;;;;26.08;10.00;;;12.00;99.90;;;;;;4994545;28;20039;-70
2022/03/23 09:07:16;;;;;;;26.65;10.40;;;12.10;99.90;;;;;;4975437;28;20133;-72
2022/03/23 09:09:42;;;;;;;25.52;10.15;;;12.20;99.90;;;;;;4975777;28;20074;-70
2022/03/23 09:12:09;;;;;;;24.08;12.45;;;12.40;99.90;;;;;;4958310;28;20057;-70
2022/03/23 09:14:36;;;;;;;26.88;14.00;;;12.50;99.90;;;;;;4993764;28;20058;-73
2022/03/23 09:17:02;;;;;;;24.42;13.88;;;12.60;99.90;;;;;;4992321;28;20046;-70
2022/03/23 09:19:29;;;;;;;26.60;14.80;;;12.70;99.90;;;;;;4994658;28;20111;-70
2022/03/23 09:21:55;;;;;;;23.45;16.13;;;12.80;99.90;;;;;;4974667;28;20129;-73
2022/03/23 09:24:20;;;;;;;25.88;14.48;;;12.90;99.90;;;;;;4995681;28;21096;-73
2022/03/23 09:26:47;;;;;;;22.77;13.95;;;13.10;99.90;;;;;;4991207;28;20042;-73
2022/03/23 09:29:13;;;;;;;23.02;14.50;;;13.10;99.90;;;;;;4994193;28;20058;-71
2022/03/23 09:31:39;;;;;;;24.42;14.45;;;13.30;99.90;;;;;;4974023;28;20053;-70
2022/03/23 09:34:05;;;;;;;27.45;15.73;;;13.40;97.80;;;;;;4957861;28;20125;-71
2022/03/23 09:39:17;;;;;;;23.33;14.00;;;13.70;95.10;;;;;;5001882;28;20050;-73
2022/03/23 09:41:45;;;;;;;21.83;14.10;;;13.70;93.70;;;;;;4975988;28;20054;-73
2022/03/23 09:44:12;;;;;;;25.38;13.38;;;13.80;93.00;;;;;;5011397;28;20053;-72
2022/03/23 09:46:38;;;;;;;24.30;12.00;;;14.00;91.90;;;;;;5009724;28;20038;-71
2022/03/23 09:49:06;;;;;;;20.25;10.75;;;14.00;91.30;;;;;;4975438;28;20050;-74
2022/03/23 09:51:33;;;;;;;22.02;11.48;;;14.10;90.30;;;;;;5006520;28;20061;-69
2022/03/23 09:54:00;;;;;;;21.10;10.80;;;14.10;88.40;;;;;;5000233;28;20514;-73
2022/03/23 09:56:26;;;;;;;20.70;11.10;;;14.20;89.80;;;;;;4973750;28;20390;-72
2022/03/23 09:58:52;;;;;;;17.25;9.32;;;14.30;89.90;;;;;;5005459;28;20046;-75
2022/03/23 10:01:32;;;;;;;23.60;10.95;;;14.40;88.80;;;;;;5006706;28;20074;-72
2022/03/23 10:04:43;;;;;;;21.75;11.27;;;14.40;84.30;;;;;;5011051;28;20079;-75
2022/03/23 10:07:21;;;;;;;19.95;10.93;;;14.50;73.30;;;;;;4926991;29;20582;-75
2022/03/23 10:09:52;;;;;;;19.95;10.68;;;14.60;75.50;;;;;;4932449;29;20047;-72
2022/03/23 10:12:45;;;;;;;18.93;10.40;;;14.80;79.20;;;;;;4915973;29;20051;-75
2022/03/23 10:15:48;;;;;;;19.60;9.85;;;14.90;74.40;;;;;;4916255;29;20336;-75
2022/03/23 10:18:34;;;;;;;22.55;9.63;;;15.00;74.50;;;;;;4927493;29;20051;-74
2022/03/23 10:21:00;;;;;;;17.70;9.48;;;15.00;74.50;;;;;;4916396;29;20171;-72
2022/03/23 10:23:27;;;;;;;20.52;9.63;;;15.20;76.10;;;;;;4913756;29;20052;-74
2022/03/23 10:25:55;;;;;;;21.88;10.85;;;15.30;75.30;;;;;;4934203;29;20043;-69
2022/03/23 10:28:21;;;;;;;22.33;10.98;;;15.40;73.20;;;;;;4904986;29;20130;-70
2022/03/23 10:30:47;;;;;;;18.00;9.88;;;15.50;72.50;;;;;;4937591;29;20187;-73
2022/03/23 10:33:24;;;;;;;16.75;9.63;;;15.60;70.70;;;;;;4954430;28;20054;-74
2022/03/23 10:35:51;;;;;;;18.27;10.50;;;15.60;67.40;;;;;;4946501;29;20043;-75
2022/03/23 10:38:22;;;;;;;18.40;10.35;;;15.70;68.40;;;;;;4932461;29;20130;-73
2022/03/23 10:40:50;;;;;;;21.15;10.05;;;15.70;67.30;;;;;;4933337;29;20089;-74
2022/03/23 10:43:33;;;;;;;18.02;10.18;;;15.80;67.90;;;;;;4953909;28;20631;-75
2022/03/23 10:46:09;;;;;;;18.45;9.77;;;15.80;66.50;;;;;;4975759;28;20157;-75
2022/03/23 10:48:35;;;;;;;19.27;9.93;;;16.00;66.80;;;;;;5005099;28;20148;-74
2022/03/23 10:51:01;;;;;;;19.00;10.18;;;16.20;68.60;;;;;;4976163;28;20078;-74
2022/03/23 10:53:37;;;;;;;20.13;10.20;;;16.30;65.80;;;;;;4980150;28;20073;-76
2022/03/23 10:56:03;;;;;;;17.17;9.35;;;16.40;64.40;;;;;;4975602;28;20418;-72
2022/03/23 10:58:29;;;;;;;21.35;9.55;;;16.50;66.60;;;;;;4973180;28;20061;-73
2022/03/23 11:00:57;;;;;;;18.13;9.80;;;16.60;67.30;;;;;;4997604;28;20049;-73
2022/03/23 11:03:38;;;;;;;18.13;9.48;;;16.70;64.80;;;;;;4973836;28;20070;-79
2022/03/23 11:06:05;;;;;;;21.52;9.30;;;16.80;63.40;;;;;;4975959;28;20414;-75
2022/03/23 11:08:31;;;;;;;17.25;9.80;;;16.90;64.60;;;;;;4993309;28;20482;-73
2022/03/23 11:16:53;;;;;;;18.13;9.77;;;17.10;60.40;;;;;;4917361;28;20058;-74
2022/03/23 11:19:26;;;;;;;21.55;10.88;;;17.20;60.00;;;;;;4933137;29;20064;-73
2022/03/23 11:22:04;;;;;;;15.43;9.73;;;17.20;56.10;;;;;;4917065;29;20051;-79
2022/03/23 11:24:36;;;;;;;19.75;10.18;;;17.10;56.10;;;;;;4932374;29;20103;-76
2022/03/23 11:27:08;;;;;;;17.83;10.07;;;17.10;54.00;;;;;;4916461;29;20507;-73
2022/03/23 11:29:34;;;;;;;16.37;9.27;;;17.10;52.80;;;;;;4901486;29;20055;-79
2022/03/23 11:32:04;;;;;;;16.65;9.57;;;17.20;54.10;;;;;;4933132;29;20052;-78
2022/03/23 11:34:32;;;;;;;14.68;8.98;;;17.30;53.70;;;;;;4933649;29;20043;-78
2022/03/23 11:36:58;;;;;;;16.65;8.57;;;17.50;53.80;;;;;;4933806;29;20063;-77
2022/03/23 11:39:26;;;;;;;20.00;9.40;;;17.60;53.60;;;;;;4933934;29;20056;-80
2022/03/23 11:41:53;;;;;;;15.68;8.65;;;17.80;53.50;;;;;;4933536;29;20043;-75
2022/03/23 11:44:21;;;;;;;18.15;9.43;;;17.90;54.20;;;;;;4917600;29;20595;-77
2022/03/23 11:46:48;;;;;;;18.48;9.35;;;17.90;53.00;;;;;;4933718;29;20129;-76
2022/03/23 11:49:34;;;;;;;18.58;10.40;;;17.90;52.50;;;;;;4916595;29;20061;-71
2022/03/23 11:52:31;;;;;;;18.48;9.73;;;17.80;52.70;;;;;;4954673;28;20065;-77
2022/03/23 11:55:38;;;;;;;20.75;9.10;;;17.70;51.20;;;;;;5012287;28;20050;-75
2022/03/23 11:58:18;;;;;;;19.65;8.75;;;17.60;49.40;;;;;;5005203;28;20379;-75
2022/03/23 12:00:55;;;;;;;18.05;8.65;;;17.70;49.80;;;;;;4998790;28;20498;-72
2022/03/23 12:03:40;;;;;;;19.25;8.48;;;17.70;48.60;;;;;;4995032;28;20046;-76
2022/03/23 12:06:13;;;;;;;17.42;8.65;;;17.90;51.30;;;;;;4992385;28;20046;-77
2022/03/23 12:08:50;;;;;;;19.85;7.70;;;17.90;51.00;;;;;;4998816;28;20046;-74
2022/03/23 12:11:43;;;;;;;24.38;9.68;;;17.80;49.70;;;;;;4981835;28;20375;-74
2022/03/23 12:14:22;;;;;;;18.70;9.18;;;17.70;47.80;;;;;;5001694;28;20049;-72
2022/03/23 12:16:51;;;;;;;17.25;8.90;;;17.90;50.80;;;;;;4956097;28;20597;-73
2022/03/23 12:19:25;;;;;;;15.95;8.85;;;18.00;51.30;;;;;;4972984;28;20047;-74
2022/03/23 12:22:05;;;;;;;18.92;7.43;;;18.10;50.80;;;;;;4969276;28;20055;-73
2022/03/23 12:24:34;;;;;;;17.23;7.85;;;18.20;49.20;;;;;;4984746;28;20047;-74
2022/03/23 12:27:07;;;;;;;17.58;8.10;;;18.30;49.80;;;;;;4963078;28;20043;-75
2022/03/23 12:29:36;;;;;;;18.48;8.05;;;18.40;49.90;;;;;;4965628;28;20051;-75
2022/03/23 12:32:05;;;;;;;24.40;8.88;;;18.50;51.10;;;;;;4974244;28;20487;-74
2022/03/23 12:34:32;;;;;;;18.55;9.18;;;18.50;50.50;;;;;;4973211;28;20142;-74
2022/03/23 12:37:19;;;;;;;17.95;8.35;;;18.50;48.80;;;;;;4958621;28;20054;-72
2022/03/23 12:39:53;;;;;;;22.02;8.80;;;18.70;50.10;;;;;;4976605;28;20062;-74
2022/03/23 12:42:31;;;;;;;16.77;8.52;;;18.70;49.80;;;;;;4975078;28;20058;-72
2022/03/23 12:44:56;;;;;;;15.27;8.48;;;18.70;50.20;;;;;;4976080;28;20043;-74
2022/03/23 12:47:27;;;;;;;22.98;8.80;;;18.70;50.50;;;;;;4976383;28;20579;-75
2022/03/23 12:58:23;;;;;;;18.42;7.82;;;18.40;49.20;;;;;;4976995;28;20192;-75
2022/03/23 13:00:50;;;;;;;22.35;8.55;;;18.40;49.10;;;;;;4976539;28;20471;-73
2022/03/23 13:03:19;;;;;;;19.65;8.45;;;18.30;49.30;;;;;;4976710;28;20047;-75
2022/03/23 13:05:59;;;;;;;17.10;8.98;;;18.40;49.30;;;;;;4976408;28;20043;-75
2022/03/23 13:08:30;;;;;;;17.25;8.32;;;18.20;47.60;;;;;;4976477;28;20054;-76